TAF KMWH
KMWH 081739Z 0818/0918 27012G21KT P6SM FEW050 FM081930 27020G28KT P6SM SKC FM090200 26012KT P6SM FEW250 FM090700 23007KT P6SM FEW250=
METAR KMWH
WC KMWH
WS KMWH
WV KMWH